Terminal Aerodrome Forecast
Issued by NWS

Home | Current Version | Previous Version | Text Only | Print | Product List | Glossary On
Versions: 1 2 3 4 5 6 7 8 9 10 11 12 13 14 15 16 17 18 19 20 21 22 23 24 25 26
000
FTUS46 KOTX 240520
TAFCOE
TAF
KCOE 240520Z 2406/2506 19012G20KT P6SM FEW090 FEW180
     FM240800 21014G26KT P6SM FEW180
     FM241300 23014G19KT P6SM SKC
     FM241800 23015G20KT P6SM SCT050 SCT100
     FM242200 25015G23KT P6SM BKN060 BKN090
     FM250200 22007KT P6SM BKN070 OVC120=

USA.gov is the U.S. government's official web portal to all federal, state and local government web resources and services.